Time;durP1;ratioP1;P1;durP2;ratioP2;P2;SDS_P1;SDS_P2;PMS_P1;PMS_P2;Temp;Humidity;BMP_temperature;BMP_pressure;BME280_temperature;BME280_humidity;BME280_pressure;Samples;Min_cycle;Max_cycle;Signal;HPM_P1;HPM_P2
2020/12/14 00:00:42;;;;;;;9.07;4.75;;;6.20;99.90;;;;;;5011626;28;20030;-59
2020/12/14 00:03:07;;;;;;;14.90;4.95;;;6.30;99.90;;;;;;5012319;28;20412;-60
2020/12/14 00:05:33;;;;;;;8.63;4.68;;;6.30;99.90;;;;;;5012286;28;20084;-61
2020/12/14 00:07:59;;;;;;;8.05;4.43;;;6.20;99.90;;;;;;5013791;28;20057;-61
2020/12/14 00:10:25;;;;;;;10.70;4.70;;;6.10;99.90;;;;;;4996186;28;20057;-60
2020/12/14 00:12:50;;;;;;;6.80;4.43;;;6.00;99.90;;;;;;5012556;28;20025;-61
2020/12/14 00:15:17;;;;;;;5.57;4.70;;;6.10;99.90;;;;;;5013568;28;20026;-60
2020/12/14 00:17:42;;;;;;;8.70;4.85;;;6.10;99.90;;;;;;5012423;28;20104;-61
2020/12/14 00:20:08;;;;;;;7.95;4.32;;;6.10;99.90;;;;;;5013409;28;20464;-61
2020/12/14 00:22:34;;;;;;;8.57;4.38;;;6.10;99.90;;;;;;5013067;28;20038;-63
2020/12/14 00:25:01;;;;;;;10.00;5.18;;;6.10;99.90;;;;;;5013294;28;20041;-60
2020/12/14 00:27:27;;;;;;;6.55;4.40;;;6.10;99.90;;;;;;5013473;28;20026;-60
2020/12/14 00:29:53;;;;;;;8.50;4.53;;;6.00;99.90;;;;;;5011168;28;20613;-61
2020/12/14 00:32:18;;;;;;;12.18;5.85;;;6.00;99.90;;;;;;5013264;28;20129;-61
2020/12/14 00:34:44;;;;;;;8.40;4.55;;;6.00;99.90;;;;;;5012520;28;20034;-61
2020/12/14 00:37:10;;;;;;;9.70;5.57;;;6.00;99.90;;;;;;5013167;28;20041;-60
2020/12/14 00:39:36;;;;;;;10.73;5.45;;;6.10;99.90;;;;;;5011821;28;20030;-60
2020/12/14 00:42:03;;;;;;;9.35;4.70;;;6.10;99.90;;;;;;5011166;28;20037;-64
2020/12/14 00:44:29;;;;;;;9.52;5.40;;;6.10;99.90;;;;;;5013476;28;20030;-61
2020/12/14 00:46:54;;;;;;;13.15;5.40;;;6.00;99.90;;;;;;5012231;28;20766;-61
2020/12/14 00:49:20;;;;;;;10.05;5.53;;;6.00;99.90;;;;;;5012559;28;20030;-61
2020/12/14 00:51:46;;;;;;;12.20;5.20;;;6.00;99.90;;;;;;5011929;28;20034;-61
2020/12/14 00:54:12;;;;;;;11.57;5.97;;;6.00;99.90;;;;;;5012694;28;20498;-60
2020/12/14 00:56:38;;;;;;;7.10;4.32;;;5.90;99.90;;;;;;5011874;28;20052;-60
2020/12/14 00:59:03;;;;;;;9.70;5.60;;;6.00;99.90;;;;;;5011051;28;20076;-60
2020/12/14 01:01:29;;;;;;;12.57;5.00;;;5.90;99.90;;;;;;4994512;28;20586;-60
2020/12/14 01:03:55;;;;;;;8.55;4.80;;;5.90;99.90;;;;;;5011495;28;20362;-60
2020/12/14 01:06:21;;;;;;;11.07;5.18;;;5.90;99.90;;;;;;5012502;28;20439;-60
2020/12/14 01:08:46;;;;;;;8.70;5.22;;;5.90;99.90;;;;;;5011122;28;20472;-60
2020/12/14 01:11:12;;;;;;;15.15;5.93;;;5.90;99.90;;;;;;5012259;28;20523;-60
2020/12/14 01:13:38;;;;;;;9.02;4.90;;;5.80;99.90;;;;;;4993667;28;20464;-61
2020/12/14 01:16:08;;;;;;;10.48;6.22;;;5.80;99.90;;;;;;5012563;28;20026;-61
2020/12/14 01:18:36;;;;;;;8.77;4.90;;;5.80;99.90;;;;;;5010974;28;20172;-63
2020/12/14 01:21:02;;;;;;;9.55;5.07;;;5.90;99.90;;;;;;4994793;28;20075;-59
2020/12/14 01:23:28;;;;;;;6.50;5.20;;;5.80;99.90;;;;;;5010381;28;20104;-60
2020/12/14 01:25:53;;;;;;;7.82;5.28;;;5.80;99.90;;;;;;5011239;28;20460;-60
2020/12/14 01:28:19;;;;;;;7.15;5.07;;;5.80;99.90;;;;;;4994424;28;20037;-60
2020/12/14 01:30:45;;;;;;;9.40;5.60;;;5.90;99.90;;;;;;5010991;28;20042;-61
2020/12/14 01:33:10;;;;;;;10.30;5.78;;;5.90;99.90;;;;;;5011503;28;20495;-60
2020/12/14 01:35:36;;;;;;;7.43;4.72;;;6.00;99.90;;;;;;5011171;28;20045;-63
2020/12/14 01:38:02;;;;;;;9.63;5.03;;;6.00;99.90;;;;;;5011431;28;20105;-61
2020/12/14 01:40:27;;;;;;;6.18;4.93;;;6.00;99.90;;;;;;5011943;28;20022;-60
2020/12/14 01:42:53;;;;;;;10.15;5.43;;;5.90;99.90;;;;;;5009913;28;20026;-61
2020/12/14 01:45:19;;;;;;;6.65;4.43;;;5.90;99.90;;;;;;5012280;28;20130;-60
2020/12/14 01:47:49;;;;;;;7.93;4.85;;;6.10;99.90;;;;;;5011179;28;20038;-60
2020/12/14 01:50:15;;;;;;;8.55;4.93;;;5.90;99.90;;;;;;5010832;28;20383;-61
2020/12/14 01:52:43;;;;;;;10.57;5.47;;;6.00;99.90;;;;;;5010950;28;20030;-60
2020/12/14 01:55:11;;;;;;;8.57;4.85;;;6.00;99.90;;;;;;5011909;28;20379;-61
2020/12/14 01:57:37;;;;;;;7.53;5.20;;;5.90;99.90;;;;;;5011879;28;20072;-63
2020/12/14 02:00:06;;;;;;;11.30;5.75;;;5.90;99.90;;;;;;4993583;28;20045;-60
2020/12/14 02:02:32;;;;;;;8.55;5.35;;;5.90;99.90;;;;;;5011832;28;20123;-60
2020/12/14 02:04:58;;;;;;;9.02;5.32;;;5.90;99.90;;;;;;5010712;28;20495;-60
2020/12/14 02:07:25;;;;;;;9.07;5.47;;;6.10;99.90;;;;;;5009945;28;20111;-60
2020/12/14 02:09:53;;;;;;;9.98;6.25;;;6.10;99.90;;;;;;5009335;28;20042;-60
2020/12/14 02:12:26;;;;;;;9.00;5.72;;;6.00;99.90;;;;;;5011223;28;20037;-60
2020/12/14 02:14:54;;;;;;;8.05;5.68;;;5.90;99.90;;;;;;5004184;28;20116;-61
2020/12/14 02:17:21;;;;;;;8.13;5.50;;;5.90;99.90;;;;;;5011693;28;20101;-60
2020/12/14 02:19:50;;;;;;;8.63;5.10;;;5.90;99.90;;;;;;5010813;28;20105;-60
2020/12/14 02:22:21;;;;;;;7.38;5.13;;;6.00;99.90;;;;;;5010293;28;20129;-61
2020/12/14 02:24:56;;;;;;;8.05;5.60;;;6.10;99.90;;;;;;5010666;28;20022;-61
2020/12/14 02:27:22;;;;;;;7.65;5.43;;;6.20;99.90;;;;;;5011282;28;20416;-61
2020/12/14 02:29:48;;;;;;;7.75;4.88;;;6.30;99.90;;;;;;5009894;28;20049;-59
2020/12/14 02:32:18;;;;;;;6.78;4.78;;;6.20;99.90;;;;;;5011419;28;20073;-60
2020/12/14 02:34:44;;;;;;;13.48;6.93;;;6.10;99.90;;;;;;4992207;28;20436;-60
2020/12/14 02:37:11;;;;;;;11.23;6.10;;;6.10;99.90;;;;;;5010497;28;20038;-60
2020/12/14 02:39:37;;;;;;;7.55;5.00;;;6.10;99.90;;;;;;5010927;28;20018;-60
2020/12/14 02:42:12;;;;;;;7.97;4.82;;;6.20;99.90;;;;;;5009032;28;20121;-60
2020/12/14 02:44:37;;;;;;;8.57;4.88;;;6.10;99.90;;;;;;5011371;28;20095;-60
2020/12/14 02:47:04;;;;;;;6.88;5.30;;;6.10;99.90;;;;;;5009957;28;20025;-61
2020/12/14 02:49:30;;;;;;;7.68;5.38;;;6.10;99.90;;;;;;5010486;28;20030;-61
2020/12/14 02:51:56;;;;;;;8.75;5.85;;;6.10;99.90;;;;;;5008254;28;20033;-61
2020/12/14 02:54:22;;;;;;;9.13;4.90;;;6.10;99.90;;;;;;5010820;28;20165;-61
2020/12/14 02:56:48;;;;;;;10.93;5.93;;;6.10;99.90;;;;;;4991805;28;20030;-61
2020/12/14 02:59:14;;;;;;;6.13;4.82;;;6.00;99.90;;;;;;5010673;28;20121;-61
2020/12/14 03:01:40;;;;;;;8.40;4.65;;;6.10;99.90;;;;;;5010744;28;20133;-64
2020/12/14 03:04:06;;;;;;;9.00;5.30;;;6.30;99.90;;;;;;4996612;28;20056;-59
2020/12/14 03:06:32;;;;;;;7.15;4.18;;;6.30;99.90;;;;;;5010448;28;20022;-60
2020/12/14 03:08:58;;;;;;;6.40;4.60;;;6.30;99.90;;;;;;5009567;28;20032;-60
2020/12/14 03:11:25;;;;;;;8.00;4.95;;;6.40;99.90;;;;;;5010738;28;20030;-59
2020/12/14 03:13:51;;;;;;;8.05;5.03;;;6.30;99.90;;;;;;5012931;28;20452;-61
2020/12/14 03:16:19;;;;;;;6.85;5.28;;;6.20;99.90;;;;;;5014476;28;20052;-61
2020/12/14 03:18:45;;;;;;;6.53;4.80;;;6.10;99.90;;;;;;5012033;28;20038;-61
2020/12/14 03:21:11;;;;;;;7.20;5.03;;;6.00;99.90;;;;;;5029863;28;20029;-60
2020/12/14 03:23:37;;;;;;;6.75;5.78;;;6.10;99.90;;;;;;5014514;28;20084;-60
2020/12/14 03:26:02;;;;;;;11.27;5.15;;;6.10;99.90;;;;;;5012165;28;20627;-60
2020/12/14 03:28:28;;;;;;;6.25;4.72;;;5.90;99.90;;;;;;5014345;28;20444;-60
2020/12/14 03:30:54;;;;;;;9.90;5.43;;;6.00;99.90;;;;;;5028510;28;20324;-60
2020/12/14 03:33:20;;;;;;;7.80;5.53;;;5.90;99.90;;;;;;5013780;28;20045;-60
2020/12/14 03:35:49;;;;;;;7.88;4.93;;;6.00;99.90;;;;;;5012687;28;20038;-60
2020/12/14 03:38:15;;;;;;;5.68;4.70;;;6.00;99.90;;;;;;5013678;28;20041;-59
2020/12/14 03:40:42;;;;;;;5.90;4.72;;;6.00;99.90;;;;;;5013076;28;20026;-62
2020/12/14 03:43:08;;;;;;;6.53;5.03;;;5.80;99.90;;;;;;5014065;28;20108;-60
2020/12/14 03:45:33;;;;;;;7.93;5.07;;;5.80;99.90;;;;;;5013917;28;20121;-61
2020/12/14 03:47:59;;;;;;;7.07;5.47;;;5.80;99.90;;;;;;5013252;28;20022;-60
2020/12/14 03:50:24;;;;;;;5.25;4.50;;;5.80;99.90;;;;;;5012725;28;20026;-60
2020/12/14 03:52:50;;;;;;;7.55;5.72;;;5.80;99.90;;;;;;4995629;28;20128;-61
2020/12/14 03:55:16;;;;;;;7.70;4.93;;;5.90;99.90;;;;;;5011954;28;20164;-60
2020/12/14 03:57:42;;;;;;;8.02;4.80;;;5.90;99.90;;;;;;5012052;28;20026;-60
2020/12/14 04:00:07;;;;;;;8.75;4.57;;;6.00;99.90;;;;;;5012843;28;20085;-59
2020/12/14 04:02:33;;;;;;;6.18;5.05;;;5.80;99.90;;;;;;5012193;28;20038;-59
2020/12/14 04:04:59;;;;;;;6.93;4.55;;;5.70;99.90;;;;;;5012984;28;20054;-60
2020/12/14 04:07:24;;;;;;;12.18;5.45;;;5.80;99.90;;;;;;5012307;28;20037;-60
2020/12/14 04:09:50;;;;;;;6.75;4.65;;;5.70;99.90;;;;;;5012757;28;20040;-61
2020/12/14 04:12:15;;;;;;;7.50;5.38;;;5.70;99.90;;;;;;5013256;28;20022;-60
2020/12/14 04:14:41;;;;;;;6.10;5.28;;;5.80;99.90;;;;;;5013555;28;20034;-60
2020/12/14 04:17:07;;;;;;;8.48;4.93;;;5.90;99.90;;;;;;5012117;28;20034;-60
2020/12/14 04:19:32;;;;;;;8.27;6.05;;;6.00;99.90;;;;;;4995449;28;20364;-59
2020/12/14 04:22:07;;;;;;;7.10;4.95;;;6.00;99.90;;;;;;5011378;28;20034;-61
2020/12/14 04:24:36;;;;;;;5.57;4.28;;;6.00;99.90;;;;;;5012121;28;20030;-59
2020/12/14 04:27:03;;;;;;;6.47;4.57;;;6.00;99.90;;;;;;5011269;28;20030;-60
2020/12/14 04:29:29;;;;;;;5.50;4.82;;;5.90;99.90;;;;;;5013557;28;20022;-60
2020/12/14 04:31:55;;;;;;;6.10;4.32;;;5.80;99.90;;;;;;5012444;28;20034;-60
2020/12/14 04:34:20;;;;;;;5.57;4.63;;;5.80;99.90;;;;;;4995189;28;20050;-60
2020/12/14 04:36:48;;;;;;;6.35;4.78;;;5.80;99.90;;;;;;4995051;28;20026;-63
2020/12/14 04:39:14;;;;;;;7.65;4.88;;;5.90;99.90;;;;;;5013077;28;20033;-60
2020/12/14 04:41:40;;;;;;;6.30;4.25;;;5.90;99.90;;;;;;5013115;28;20022;-61
2020/12/14 04:44:08;;;;;;;7.50;5.03;;;5.70;99.90;;;;;;5012210;28;20044;-62
2020/12/14 04:46:34;;;;;;;6.00;4.97;;;5.70;99.90;;;;;;5012022;28;20030;-59
2020/12/14 04:49:05;;;;;;;8.48;4.35;;;5.80;99.90;;;;;;5012345;28;20045;-60
2020/12/14 04:51:38;;;;;;;10.98;4.85;;;5.90;99.90;;;;;;5011508;28;20096;-60
2020/12/14 04:54:07;;;;;;;6.10;4.40;;;5.90;99.90;;;;;;5011991;28;20034;-59
2020/12/14 04:56:39;;;;;;;6.25;4.43;;;6.00;99.90;;;;;;5012821;28;20029;-60
2020/12/14 04:59:05;;;;;;;8.02;5.43;;;6.00;99.90;;;;;;5012017;28;20022;-60
2020/12/14 05:01:30;;;;;;;6.82;5.00;;;6.00;99.90;;;;;;5012885;28;20049;-60
2020/12/14 05:03:56;;;;;;;5.90;4.60;;;6.00;99.90;;;;;;4997404;28;20089;-60
2020/12/14 05:06:22;;;;;;;6.40;4.93;;;5.90;99.90;;;;;;5012852;28;20025;-60
2020/12/14 05:08:47;;;;;;;10.13;4.82;;;5.90;99.90;;;;;;5012467;28;20029;-63
2020/12/14 05:11:13;;;;;;;8.18;4.88;;;6.00;99.90;;;;;;5010861;28;20340;-60
2020/12/14 05:13:40;;;;;;;5.85;4.22;;;6.10;99.90;;;;;;5012315;28;20391;-60
2020/12/14 05:16:05;;;;;;;7.53;4.78;;;6.00;99.90;;;;;;5010644;28;20041;-59
2020/12/14 05:18:31;;;;;;;6.65;4.53;;;6.00;99.90;;;;;;5010521;28;20030;-60
2020/12/14 05:21:00;;;;;;;6.28;5.00;;;5.90;99.90;;;;;;5010332;28;20040;-60
2020/12/14 05:23:27;;;;;;;8.88;5.25;;;6.00;99.90;;;;;;5011092;28;20051;-61
2020/12/14 05:26:03;;;;;;;7.43;4.60;;;5.80;99.90;;;;;;5010113;28;20057;-61
2020/12/14 05:28:29;;;;;;;7.57;4.97;;;5.80;99.90;;;;;;5011273;28;20133;-61
2020/12/14 05:30:55;;;;;;;7.18;4.85;;;5.80;99.90;;;;;;5009720;28;20101;-60
2020/12/14 05:33:23;;;;;;;6.70;4.53;;;5.80;99.90;;;;;;5012010;28;20124;-61
2020/12/14 05:35:49;;;;;;;5.80;4.50;;;5.90;99.90;;;;;;5011245;28;20119;-64
2020/12/14 05:38:23;;;;;;;5.75;4.60;;;6.00;99.90;;;;;;5011458;28;20041;-60
2020/12/14 05:40:52;;;;;;;5.65;4.35;;;5.80;99.90;;;;;;5012260;28;20455;-64
2020/12/14 05:43:27;;;;;;;9.48;4.82;;;5.80;99.90;;;;;;5012199;28;20040;-60
2020/12/14 05:45:54;;;;;;;10.48;5.13;;;5.80;99.90;;;;;;5026346;28;20083;-64
2020/12/14 05:48:23;;;;;;;8.48;4.47;;;5.80;99.90;;;;;;5011678;28;20053;-61
2020/12/14 05:50:51;;;;;;;6.05;4.70;;;5.90;99.90;;;;;;5011942;28;20376;-63
2020/12/14 05:53:20;;;;;;;9.18;4.28;;;5.80;99.90;;;;;;5011253;28;20116;-61
2020/12/14 05:55:47;;;;;;;7.93;4.47;;;5.80;99.90;;;;;;5011490;28;20044;-60
2020/12/14 05:58:16;;;;;;;5.65;4.43;;;5.90;99.90;;;;;;5011753;28;20455;-61
2020/12/14 06:00:46;;;;;;;6.00;4.82;;;6.10;99.90;;;;;;5010895;28;20030;-60
2020/12/14 06:03:13;;;;;;;6.45;4.70;;;6.10;99.90;;;;;;5011544;28;20033;-59
2020/12/14 06:05:38;;;;;;;4.70;4.10;;;6.10;99.90;;;;;;5012307;28;20030;-60
2020/12/14 06:08:29;;;;;;;7.55;4.68;;;6.10;99.90;;;;;;5010198;28;20117;-61
2020/12/14 06:10:58;;;;;;;7.80;4.32;;;6.20;99.90;;;;;;5009793;28;20029;-62
2020/12/14 06:13:31;;;;;;;4.55;3.90;;;6.20;99.90;;;;;;4993778;28;20109;-61
2020/12/14 06:16:02;;;;;;;8.25;5.32;;;6.20;99.90;;;;;;5009659;28;20133;-66
2020/12/14 06:18:34;;;;;;;7.38;3.97;;;7.50;99.90;;;;;;5011709;28;20073;-68
2020/12/14 06:21:00;;;;;;;4.65;3.95;;;7.80;99.90;;;;;;5009025;28;20121;-61
2020/12/14 06:23:29;;;;;;;5.95;3.88;;;7.10;99.90;;;;;;4993314;28;20068;-60
2020/12/14 06:25:55;;;;;;;6.93;4.43;;;6.60;99.90;;;;;;5010371;28;20118;-63
2020/12/14 06:28:32;;;;;;;9.23;4.75;;;6.60;99.90;;;;;;5010665;28;20499;-60
2020/12/14 06:30:58;;;;;;;9.05;3.92;;;6.40;99.90;;;;;;5010013;28;20026;-61
2020/12/14 06:33:40;;;;;;;9.73;4.72;;;6.30;99.90;;;;;;5010536;28;20096;-60
2020/12/14 06:36:19;;;;;;;8.73;4.18;;;6.30;99.90;;;;;;4976000;28;20064;-59
2020/12/14 06:38:47;;;;;;;9.68;4.57;;;6.20;99.90;;;;;;5009516;28;20029;-61
2020/12/14 06:41:17;;;;;;;6.85;5.10;;;6.10;99.90;;;;;;4992289;28;20658;-61
2020/12/14 06:43:44;;;;;;;5.70;3.97;;;6.10;99.90;;;;;;5011019;28;20041;-59
2020/12/14 06:46:10;;;;;;;6.97;5.03;;;6.10;99.90;;;;;;5010459;28;20071;-61
2020/12/14 06:48:39;;;;;;;7.82;4.50;;;6.10;99.90;;;;;;5010183;28;20029;-60
2020/12/14 06:51:23;;;;;;;7.25;4.03;;;6.00;99.90;;;;;;5008781;28;20026;-60
2020/12/14 06:53:53;;;;;;;7.30;4.50;;;6.10;99.90;;;;;;5009444;28;20036;-60
2020/12/14 06:56:28;;;;;;;7.97;4.63;;;6.10;99.90;;;;;;4993507;28;20129;-60
2020/12/14 06:58:55;;;;;;;6.65;4.60;;;6.10;99.90;;;;;;5010683;28;20060;-64
2020/12/14 07:01:39;;;;;;;8.13;4.57;;;6.10;99.90;;;;;;5011034;28;20026;-60
2020/12/14 07:04:15;;;;;;;5.78;3.97;;;6.10;99.90;;;;;;5010064;28;20053;-60
2020/12/14 07:06:41;;;;;;;5.65;4.35;;;6.30;99.90;;;;;;5011143;28;20062;-60
2020/12/14 07:09:29;;;;;;;5.15;3.83;;;6.30;99.90;;;;;;5008948;28;20117;-61
2020/12/14 07:12:15;;;;;;;6.82;4.65;;;6.20;99.90;;;;;;5010330;28;20030;-63
2020/12/14 07:14:52;;;;;;;6.38;4.28;;;6.30;99.90;;;;;;4993070;28;20108;-61
2020/12/14 07:17:19;;;;;;;7.22;4.25;;;6.40;99.90;;;;;;5010044;28;20022;-59
2020/12/14 07:19:46;;;;;;;7.70;4.60;;;6.20;99.90;;;;;;4993052;28;20033;-60
2020/12/14 07:22:14;;;;;;;7.07;4.95;;;6.10;99.90;;;;;;5010135;28;20072;-60
2020/12/14 07:24:40;;;;;;;6.38;4.65;;;6.20;99.90;;;;;;4992978;28;20109;-60
2020/12/14 07:27:09;;;;;;;11.02;4.93;;;6.20;99.90;;;;;;5010005;28;20103;-60
2020/12/14 07:29:35;;;;;;;5.43;4.75;;;6.30;99.90;;;;;;5010307;28;20022;-60
2020/12/14 07:32:04;;;;;;;10.40;4.80;;;6.40;99.90;;;;;;4992347;28;20111;-60
2020/12/14 07:34:30;;;;;;;4.63;3.90;;;6.30;99.90;;;;;;5009256;28;20034;-60
2020/12/14 07:36:56;;;;;;;6.47;4.57;;;6.30;99.90;;;;;;5008809;28;20022;-64
2020/12/14 07:39:22;;;;;;;9.73;5.47;;;6.30;99.90;;;;;;5014924;28;20477;-60
2020/12/14 07:41:47;;;;;;;4.88;4.28;;;6.40;99.90;;;;;;5028966;28;20514;-61
2020/12/14 07:44:13;;;;;;;5.63;3.92;;;6.40;99.90;;;;;;5010049;28;20120;-60
2020/12/14 07:46:39;;;;;;;7.35;5.78;;;6.40;99.90;;;;;;5028672;28;20442;-60
2020/12/14 07:49:10;;;;;;;6.65;4.22;;;6.30;99.90;;;;;;5027289;28;20026;-61
2020/12/14 07:51:44;;;;;;;5.93;4.05;;;6.40;99.90;;;;;;5027977;28;20029;-62
2020/12/14 07:54:15;;;;;;;14.40;4.93;;;6.40;99.90;;;;;;5019907;28;20440;-60
2020/12/14 07:56:42;;;;;;;4.30;3.77;;;6.40;99.90;;;;;;5008481;28;20025;-61
2020/12/14 07:59:21;;;;;;;7.13;4.30;;;6.50;99.90;;;;;;5025031;28;20295;-61
2020/12/14 08:01:47;;;;;;;12.90;5.03;;;6.60;99.90;;;;;;5022630;28;20021;-63
2020/12/14 08:04:19;;;;;;;6.72;4.78;;;6.60;99.90;;;;;;5015563;28;20103;-64
2020/12/14 08:06:48;;;;;;;6.50;4.38;;;7.60;99.90;;;;;;5032376;28;20060;-60
2020/12/14 08:09:19;;;;;;;8.23;4.10;;;7.20;99.90;;;;;;5031543;28;20021;-61
2020/12/14 08:11:46;;;;;;;7.50;4.60;;;7.10;99.90;;;;;;5022736;28;20026;-61
2020/12/14 08:14:17;;;;;;;8.57;4.43;;;7.20;99.90;;;;;;5018935;28;20575;-61
2020/12/14 08:16:45;;;;;;;6.88;3.72;;;7.10;99.90;;;;;;5021839;28;20101;-61
2020/12/14 08:19:19;;;;;;;17.88;4.78;;;7.10;99.90;;;;;;5019740;28;20443;-60
2020/12/14 08:22:05;;;;;;;6.82;4.93;;;7.00;99.90;;;;;;5012775;28;20037;-62
2020/12/14 08:24:31;;;;;;;14.18;4.88;;;7.00;99.90;;;;;;5038465;28;20028;-60
2020/12/14 08:27:09;;;;;;;7.28;4.63;;;7.00;99.90;;;;;;5050670;28;20025;-60
2020/12/14 08:29:36;;;;;;;8.10;4.97;;;7.10;99.90;;;;;;5052231;28;20103;-60
2020/12/14 08:32:02;;;;;;;8.20;4.38;;;7.00;99.90;;;;;;5050042;28;20369;-63
2020/12/14 08:34:34;;;;;;;5.88;4.85;;;6.90;99.90;;;;;;5051776;28;20041;-61
2020/12/14 08:37:01;;;;;;;11.60;4.32;;;6.90;99.90;;;;;;5049910;28;20056;-63
2020/12/14 08:39:27;;;;;;;4.68;3.83;;;7.10;99.90;;;;;;5041711;28;20029;-60
2020/12/14 08:42:11;;;;;;;9.50;4.47;;;7.00;99.90;;;;;;5049935;28;20390;-60
2020/12/14 08:44:39;;;;;;;6.32;4.13;;;7.10;99.90;;;;;;5050133;28;20147;-61
2020/12/14 08:47:15;;;;;;;5.72;4.38;;;7.00;99.90;;;;;;5034696;28;20029;-61
2020/12/14 08:49:42;;;;;;;4.40;3.58;;;7.00;99.90;;;;;;5029441;28;20076;-60
2020/12/14 08:52:07;;;;;;;4.57;3.38;;;6.90;99.90;;;;;;5028037;28;20079;-60
2020/12/14 08:54:33;;;;;;;6.47;4.05;;;6.90;99.90;;;;;;5031198;28;20548;-60
2020/12/14 08:56:59;;;;;;;4.70;3.78;;;6.90;99.90;;;;;;5025946;28;20029;-60
2020/12/14 08:59:26;;;;;;;7.53;4.40;;;7.10;99.90;;;;;;5009884;28;20468;-60
2020/12/14 09:02:04;;;;;;;4.95;3.85;;;6.90;99.90;;;;;;5010467;28;20117;-61
2020/12/14 09:04:37;;;;;;;4.72;3.78;;;7.00;99.90;;;;;;5012202;28;20049;-60
2020/12/14 09:07:07;;;;;;;5.40;3.88;;;6.90;99.90;;;;;;5010460;28;20026;-62
2020/12/14 09:09:38;;;;;;;6.00;3.80;;;7.00;99.90;;;;;;5011331;28;20088;-60
2020/12/14 09:12:10;;;;;;;6.25;3.90;;;7.10;99.90;;;;;;4993148;28;20033;-63
2020/12/14 09:14:36;;;;;;;7.82;4.63;;;7.20;99.90;;;;;;5011746;28;20129;-60
2020/12/14 09:17:11;;;;;;;6.28;3.97;;;7.20;99.90;;;;;;5011150;28;20040;-64
2020/12/14 09:19:37;;;;;;;4.80;3.65;;;7.40;99.90;;;;;;4994303;28;20030;-61
2020/12/14 09:22:03;;;;;;;8.30;4.35;;;7.40;99.90;;;;;;4993968;28;20376;-63
2020/12/14 09:24:34;;;;;;;7.82;3.95;;;7.70;99.90;;;;;;5024590;28;20412;-60
2020/12/14 09:27:07;;;;;;;4.90;3.58;;;7.80;99.90;;;;;;5014402;28;20099;-60
2020/12/14 09:29:33;;;;;;;5.93;4.40;;;8.00;99.90;;;;;;5031495;28;20056;-60
2020/12/14 09:32:00;;;;;;;5.82;3.42;;;8.10;99.90;;;;;;5013559;28;20041;-60
2020/12/14 09:34:26;;;;;;;6.35;4.68;;;8.10;99.90;;;;;;5031485;28;20033;-61
2020/12/14 09:36:56;;;;;;;8.68;3.95;;;8.20;99.90;;;;;;5032022;28;20032;-61
2020/12/14 09:39:23;;;;;;;5.53;3.78;;;8.50;99.90;;;;;;5031093;28;20575;-60
2020/12/14 09:41:50;;;;;;;7.15;4.28;;;8.60;99.90;;;;;;5032060;28;20036;-61
2020/12/14 09:44:16;;;;;;;7.22;4.68;;;8.80;99.90;;;;;;5031163;28;20462;-60
2020/12/14 09:46:42;;;;;;;6.13;4.07;;;8.70;99.90;;;;;;5031758;28;20156;-60
2020/12/14 09:49:08;;;;;;;5.35;3.90;;;8.40;99.90;;;;;;5031526;28;20534;-61
2020/12/14 09:51:35;;;;;;;5.55;3.45;;;8.20;99.90;;;;;;5031487;28;20120;-61
2020/12/14 09:54:02;;;;;;;5.57;4.00;;;8.00;99.90;;;;;;5031549;28;20044;-61
2020/12/14 09:56:27;;;;;;;5.32;3.78;;;8.20;99.90;;;;;;5031723;28;20033;-60
2020/12/14 09:58:53;;;;;;;5.13;2.97;;;8.40;99.90;;;;;;5031259;28;20029;-61
2020/12/14 10:01:19;;;;;;;6.80;3.20;;;8.40;99.90;;;;;;5012709;28;20030;-60
2020/12/14 10:03:44;;;;;;;3.80;3.15;;;8.60;99.90;;;;;;5030907;28;20119;-60
2020/12/14 10:06:11;;;;;;;10.18;3.22;;;8.50;99.90;;;;;;5030761;28;20033;-61
2020/12/14 10:08:37;;;;;;;5.40;3.63;;;8.60;99.90;;;;;;5031792;28;20025;-61
2020/12/14 10:11:03;;;;;;;6.78;3.28;;;9.10;99.90;;;;;;5031385;28;20029;-61
2020/12/14 10:13:29;;;;;;;6.38;3.85;;;9.50;99.80;;;;;;5030194;28;20211;-62
2020/12/14 10:15:55;;;;;;;7.30;3.70;;;10.10;99.10;;;;;;5031883;28;20474;-60
2020/12/14 10:18:20;;;;;;;4.72;4.13;;;10.50;98.20;;;;;;5031172;28;20029;-61
2020/12/14 10:20:46;;;;;;;4.45;3.67;;;10.80;97.40;;;;;;5031253;28;20072;-60
2020/12/14 10:23:12;;;;;;;6.18;3.38;;;11.50;96.30;;;;;;5030678;28;20478;-61
2020/12/14 10:25:39;;;;;;;10.85;4.53;;;11.70;95.90;;;;;;5031651;28;20100;-60
2020/12/14 10:28:05;;;;;;;10.57;3.47;;;12.10;95.30;;;;;;5031533;28;20091;-61
2020/12/14 10:30:32;;;;;;;8.43;3.42;;;12.90;94.30;;;;;;5031275;28;20047;-62
2020/12/14 10:32:57;;;;;;;4.25;3.20;;;14.00;91.70;;;;;;5031396;28;20049;-61
2020/12/14 10:35:24;;;;;;;6.15;3.10;;;14.30;90.40;;;;;;5015839;28;20034;-60
2020/12/14 10:37:49;;;;;;;3.80;2.72;;;14.60;91.90;;;;;;5010554;28;20501;-61
2020/12/14 10:40:15;;;;;;;5.75;3.10;;;15.10;91.00;;;;;;5027127;28;20154;-61
2020/12/14 10:42:42;;;;;;;8.35;3.10;;;14.80;90.90;;;;;;5030366;28;20037;-61
2020/12/14 10:45:08;;;;;;;6.88;2.67;;;15.50;86.90;;;;;;5029679;28;20517;-64
2020/12/14 10:47:34;;;;;;;9.05;3.70;;;15.90;87.10;;;;;;5028741;28;20021;-61
2020/12/14 10:50:00;;;;;;;6.00;2.65;;;16.10;83.00;;;;;;5028832;28;20114;-60
2020/12/14 10:52:25;;;;;;;6.25;3.08;;;16.60;81.80;;;;;;5029610;28;20029;-61
2020/12/14 10:54:51;;;;;;;3.42;2.95;;;17.20;80.20;;;;;;5030398;28;20029;-60
2020/12/14 10:57:17;;;;;;;3.70;2.30;;;16.90;75.30;;;;;;5029692;28;20032;-60
2020/12/14 10:59:44;;;;;;;3.75;2.80;;;17.50;75.90;;;;;;5030627;28;20021;-61
2020/12/14 11:02:10;;;;;;;6.97;3.00;;;15.40;79.20;;;;;;5030067;28;20138;-61
2020/12/14 11:04:37;;;;;;;7.28;3.45;;;14.70;87.00;;;;;;5030679;28;20153;-61
2020/12/14 11:07:06;;;;;;;3.97;2.95;;;13.80;90.90;;;;;;5029113;28;20162;-62
2020/12/14 11:09:32;;;;;;;4.40;3.15;;;13.70;90.90;;;;;;5030168;28;20029;-61
2020/12/14 11:11:57;;;;;;;18.35;3.70;;;12.90;92.70;;;;;;5030662;28;20147;-62
2020/12/14 11:14:23;;;;;;;6.35;3.00;;;13.00;93.10;;;;;;5029736;28;20494;-62
2020/12/14 11:16:49;;;;;;;7.80;5.05;;;13.40;92.20;;;;;;5030614;28;20063;-62
2020/12/14 11:19:14;;;;;;;5.95;3.42;;;13.40;91.60;;;;;;5028147;28;20362;-62
2020/12/14 11:21:40;;;;;;;5.20;2.95;;;14.10;91.10;;;;;;5028954;28;20028;-61
2020/12/14 11:24:07;;;;;;;3.78;2.92;;;14.80;89.00;;;;;;5030100;28;20490;-61
2020/12/14 11:26:33;;;;;;;5.10;2.63;;;15.40;84.00;;;;;;5029835;28;20025;-61
2020/12/14 11:28:58;;;;;;;8.07;2.80;;;15.60;81.70;;;;;;5012868;28;20052;-61
2020/12/14 11:31:24;;;;;;;7.93;3.05;;;16.30;78.00;;;;;;5029909;28;20386;-64
2020/12/14 11:33:50;;;;;;;4.93;2.83;;;17.00;72.90;;;;;;5032019;28;20047;-61
2020/12/14 11:36:15;;;;;;;5.18;2.35;;;16.20;77.20;;;;;;5032601;28;20041;-61
2020/12/14 11:38:41;;;;;;;13.60;3.25;;;16.00;75.60;;;;;;5034709;28;20033;-61
2020/12/14 11:41:10;;;;;;;4.00;2.50;;;15.90;77.00;;;;;;5034132;28;20021;-62
2020/12/14 11:43:35;;;;;;;8.45;4.97;;;14.80;81.10;;;;;;5034371;28;20030;-61
2020/12/14 11:46:01;;;;;;;4.43;2.55;;;14.40;85.60;;;;;;5016532;28;20050;-62
2020/12/14 11:48:27;;;;;;;7.78;2.83;;;13.30;89.10;;;;;;5015608;28;20193;-62
2020/12/14 11:50:52;;;;;;;2.90;2.25;;;12.50;91.60;;;;;;5034381;28;20052;-61
2020/12/14 11:53:18;;;;;;;6.03;3.13;;;12.20;92.60;;;;;;5032222;28;20040;-62
2020/12/14 11:55:45;;;;;;;5.38;2.65;;;11.80;94.10;;;;;;5016181;28;20025;-61
2020/12/14 11:58:11;;;;;;;4.32;2.33;;;11.90;94.10;;;;;;5031987;28;20048;-64
2020/12/14 12:00:36;;;;;;;3.15;2.30;;;11.90;94.40;;;;;;5016115;28;20032;-61
2020/12/14 12:03:02;;;;;;;4.78;2.75;;;11.90;94.00;;;;;;5034082;28;20087;-61
2020/12/14 12:05:28;;;;;;;3.92;2.08;;;11.30;95.00;;;;;;5031280;28;20379;-61
2020/12/14 12:07:53;;;;;;;5.53;2.88;;;11.30;95.60;;;;;;5033546;28;20080;-62
2020/12/14 12:10:20;;;;;;;3.40;2.25;;;11.40;95.60;;;;;;5032368;28;20332;-61
2020/12/14 12:12:46;;;;;;;3.65;2.15;;;11.20;95.20;;;;;;5033232;28;20037;-61
2020/12/14 12:15:15;;;;;;;5.78;2.28;;;10.90;95.90;;;;;;5033301;28;20026;-63
2020/12/14 12:17:42;;;;;;;7.68;2.70;;;10.90;96.20;;;;;;5034006;28;20025;-61
2020/12/14 12:20:08;;;;;;;4.60;2.33;;;10.70;96.90;;;;;;5033487;28;20025;-61
2020/12/14 12:22:33;;;;;;;7.60;2.75;;;10.60;97.60;;;;;;5033144;28;20036;-62
2020/12/14 12:24:59;;;;;;;6.75;3.20;;;10.90;97.40;;;;;;5033256;28;20025;-61
2020/12/14 12:27:25;;;;;;;4.75;2.20;;;10.90;97.00;;;;;;5032406;28;20022;-60
2020/12/14 12:29:50;;;;;;;7.55;2.42;;;10.60;97.40;;;;;;4998976;28;20034;-62
2020/12/14 12:32:16;;;;;;;4.00;2.10;;;10.70;97.40;;;;;;5032906;28;20048;-62
2020/12/14 12:34:42;;;;;;;9.10;2.33;;;10.70;97.70;;;;;;5032950;28;20093;-61
2020/12/14 12:37:07;;;;;;;3.03;1.98;;;10.80;97.60;;;;;;5033219;28;20026;-61
2020/12/14 12:39:33;;;;;;;5.18;2.35;;;10.60;97.70;;;;;;5032649;28;20040;-62
2020/12/14 12:42:00;;;;;;;5.50;2.33;;;10.70;97.80;;;;;;5031952;28;20131;-62
2020/12/14 12:44:26;;;;;;;8.30;1.95;;;10.80;97.60;;;;;;5014088;28;20113;-61
2020/12/14 12:46:53;;;;;;;2.72;1.70;;;10.70;97.80;;;;;;5032763;28;20108;-61
2020/12/14 12:49:19;;;;;;;3.67;2.00;;;10.50;98.10;;;;;;5032403;28;20040;-61
2020/12/14 12:51:47;;;;;;;3.85;2.28;;;10.50;98.40;;;;;;5033241;28;20026;-61
2020/12/14 12:54:14;;;;;;;3.80;2.85;;;10.50;98.40;;;;;;5032882;28;20077;-61